KCHK

Chickasha Municipal Airport

Chickasha, Oklahoma, USA
METAR KCHK 240155Z AUTO 13006KT 10SM CLR 26/20 A2998 RMK AO2 T02580195
Observed Flight Rules
May-24 @ 01:55 UTC (24 minutes ago) Visual Flight Rules
Wind Visibility Clouds
130° at 6 knots 10 miles
  • Clear skies
Temperatures Readings
Current 26°C / 79°F
Dewpoint 20°C / 68°F
Humidity 70%
Altimeter 29.98" Hg
Pressure 1015 hPa
Elevation 351
METAR KCHK 240155Z AUTO 13006KT 10SM CLR 26/20 A2998 RMK AO2 T02580195
Observed Flight Rules
May-24 @ 01:55 UTC
(24 minutes ago)
VFR
Wind Visibility
130° at 6 knots 10 miles
Clouds
  • Clear skies
Temperature Dewpoint
26°C / 79°F 20°C / 68°F
Humidity Altimeter Pressure
70% 29.98" Hg 1015 hPa